sensor_id;sensor_type;location;lat;lon;timestamp;pressure;altitude;pressure_sealevel;temperature;humidity
27202;BME280;14717;46.924;15.474;2023-02-26T00:01:27;96747.66;;;3.14;97.64
27202;BME280;14717;46.924;15.474;2023-02-26T00:03:54;96745.44;;;3.31;97.46
27202;BME280;14717;46.924;15.474;2023-02-26T00:06:20;96745.19;;;2.98;96.85
27202;BME280;14717;46.924;15.474;2023-02-26T00:08:46;96734.81;;;2.60;99.10
27202;BME280;14717;46.924;15.474;2023-02-26T00:11:12;96748.69;;;2.49;100.00
27202;BME280;14717;46.924;15.474;2023-02-26T00:13:39;96737.53;;;2.60;100.00
27202;BME280;14717;46.924;15.474;2023-02-26T00:18:44;96753.59;;;2.47;100.00
27202;BME280;14717;46.924;15.474;2023-02-26T00:21:21;96767.75;;;2.49;100.00
27202;BME280;14717;46.924;15.474;2023-02-26T00:23:47;96781.69;;;2.62;100.00
27202;BME280;14717;46.924;15.474;2023-02-26T00:26:12;96775.41;;;2.52;100.00
27202;BME280;14717;46.924;15.474;2023-02-26T00:28:38;96772.09;;;2.35;100.00
27202;BME280;14717;46.924;15.474;2023-02-26T00:31:04;96770.13;;;2.21;100.00
27202;BME280;14717;46.924;15.474;2023-02-26T00:33:30;96774.25;;;2.33;100.00
27202;BME280;14717;46.924;15.474;2023-02-26T00:36:09;96780.81;;;2.42;100.00
27202;BME280;14717;46.924;15.474;2023-02-26T00:38:42;96796.06;;;2.48;100.00
27202;BME280;14717;46.924;15.474;2023-02-26T00:41:09;96797.47;;;2.51;100.00
27202;BME280;14717;46.924;15.474;2023-02-26T00:43:34;96799.66;;;2.58;100.00
27202;BME280;14717;46.924;15.474;2023-02-26T00:51:58;96763.38;;;2.43;100.00
27202;BME280;14717;46.924;15.474;2023-02-26T00:54:28;96758.47;;;2.30;100.00
27202;BME280;14717;46.924;15.474;2023-02-26T00:56:55;96753.59;;;2.42;100.00
27202;BME280;14717;46.924;15.474;2023-02-26T00:59:21;96743.78;;;2.56;100.00
27202;BME280;14717;46.924;15.474;2023-02-26T01:01:47;96752.22;;;2.59;100.00
27202;BME280;14717;46.924;15.474;2023-02-26T01:04:17;96754.69;;;2.61;100.00
27202;BME280;14717;46.924;15.474;2023-02-26T01:06:49;96765.06;;;2.74;100.00
27202;BME280;14717;46.924;15.474;2023-02-26T01:11:46;96780.09;;;2.86;100.00
27202;BME280;14717;46.924;15.474;2023-02-26T01:14:13;96776.81;;;2.84;100.00
27202;BME280;14717;46.924;15.474;2023-02-26T01:16:42;96783.34;;;2.78;99.13
27202;BME280;14717;46.924;15.474;2023-02-26T01:19:16;96774.91;;;2.80;99.83
27202;BME280;14717;46.924;15.474;2023-02-26T01:21:47;96770.53;;;2.89;100.00
27202;BME280;14717;46.924;15.474;2023-02-26T01:24:15;96767.00;;;2.98;99.55
27202;BME280;14717;46.924;15.474;2023-02-26T01:26:42;96764.28;;;2.78;99.01
27202;BME280;14717;46.924;15.474;2023-02-26T01:29:08;96768.34;;;2.76;100.00
27202;BME280;14717;46.924;15.474;2023-02-26T01:34:18;96803.75;;;2.61;100.00
27202;BME280;14717;46.924;15.474;2023-02-26T01:37:18;96788.78;;;2.58;100.00
27202;BME280;14717;46.924;15.474;2023-02-26T01:42:35;96765.84;;;2.50;100.00
27202;BME280;14717;46.924;15.474;2023-02-26T01:45:14;96761.75;;;2.42;100.00
27202;BME280;14717;46.924;15.474;2023-02-26T01:48:02;96750.88;;;2.47;100.00
27202;BME280;14717;46.924;15.474;2023-02-26T01:50:31;96726.88;;;2.49;100.00
27202;BME280;14717;46.924;15.474;2023-02-26T01:53:16;96751.91;;;2.36;100.00
27202;BME280;14717;46.924;15.474;2023-02-26T01:55:43;96754.13;;;2.54;100.00
27202;BME280;14717;46.924;15.474;2023-02-26T01:58:10;96748.97;;;2.67;100.00
27202;BME280;14717;46.924;15.474;2023-02-26T02:00:36;96758.81;;;2.73;100.00
27202;BME280;14717;46.924;15.474;2023-02-26T02:03:02;96772.44;;;2.78;99.87
27202;BME280;14717;46.924;15.474;2023-02-26T02:05:32;96772.97;;;2.70;99.76
27202;BME280;14717;46.924;15.474;2023-02-26T02:07:59;96770.00;;;2.77;99.76
27202;BME280;14717;46.924;15.474;2023-02-26T02:10:26;96790.72;;;2.78;99.94
27202;BME280;14717;46.924;15.474;2023-02-26T02:18:26;96794.53;;;2.82;99.16
27202;BME280;14717;46.924;15.474;2023-02-26T02:21:20;96792.09;;;2.90;99.58
27202;BME280;14717;46.924;15.474;2023-02-26T02:23:58;96780.38;;;2.85;99.32
27202;BME280;14717;46.924;15.474;2023-02-26T02:26:55;96781.97;;;2.81;98.92
27202;BME280;14717;46.924;15.474;2023-02-26T02:31:59;96785.53;;;2.71;98.32
27202;BME280;14717;46.924;15.474;2023-02-26T02:35:03;96791.22;;;2.60;98.54
27202;BME280;14717;46.924;15.474;2023-02-26T02:37:53;96789.56;;;2.59;99.35
27202;BME280;14717;46.924;15.474;2023-02-26T02:40:24;96791.75;;;2.47;99.88
27202;BME280;14717;46.924;15.474;2023-02-26T02:43:26;96787.88;;;2.43;100.00
27202;BME280;14717;46.924;15.474;2023-02-26T02:45:59;96793.94;;;2.55;100.00
27202;BME280;14717;46.924;15.474;2023-02-26T02:48:38;96792.81;;;2.46;100.00
27202;BME280;14717;46.924;15.474;2023-02-26T02:53:41;96810.81;;;2.52;99.60
27202;BME280;14717;46.924;15.474;2023-02-26T02:56:14;96812.75;;;2.56;100.00
27202;BME280;14717;46.924;15.474;2023-02-26T02:58:52;96816.28;;;2.52;97.74
27202;BME280;14717;46.924;15.474;2023-02-26T03:01:21;96814.91;;;2.54;98.06
27202;BME280;14717;46.924;15.474;2023-02-26T03:04:09;96817.59;;;2.50;97.27
27202;BME280;14717;46.924;15.474;2023-02-26T03:06:36;96826.38;;;2.52;97.77
27202;BME280;14717;46.924;15.474;2023-02-26T03:09:03;96836.94;;;2.48;97.55
27202;BME280;14717;46.924;15.474;2023-02-26T03:11:30;96841.63;;;2.57;98.94
27202;BME280;14717;46.924;15.474;2023-02-26T03:13:56;96842.19;;;2.69;98.34
27202;BME280;14717;46.924;15.474;2023-02-26T03:16:48;96856.69;;;2.80;98.36
27202;BME280;14717;46.924;15.474;2023-02-26T03:19:33;96852.31;;;2.84;98.13
27202;BME280;14717;46.924;15.474;2023-02-26T03:22:06;96881.78;;;2.82;97.76
27202;BME280;14717;46.924;15.474;2023-02-26T03:24:37;96864.84;;;2.75;98.14
27202;BME280;14717;46.924;15.474;2023-02-26T03:27:27;96869.72;;;2.63;98.19
27202;BME280;14717;46.924;15.474;2023-02-26T03:30:47;96861.00;;;2.71;98.59
27202;BME280;14717;46.924;15.474;2023-02-26T03:33:13;96858.28;;;2.71;98.69
27202;BME280;14717;46.924;15.474;2023-02-26T03:35:45;96854.50;;;2.77;98.54
27202;BME280;14717;46.924;15.474;2023-02-26T03:38:36;96864.59;;;2.81;98.07
27202;BME280;14717;46.924;15.474;2023-02-26T03:41:13;96859.69;;;2.78;97.56
27202;BME280;14717;46.924;15.474;2023-02-26T03:43:49;96868.13;;;2.77;97.93
27202;BME280;14717;46.924;15.474;2023-02-26T03:46:23;96855.53;;;2.66;97.43
27202;BME280;14717;46.924;15.474;2023-02-26T03:48:50;96849.56;;;2.69;98.41
27202;BME280;14717;46.924;15.474;2023-02-26T03:51:16;96854.22;;;2.68;98.18
27202;BME280;14717;46.924;15.474;2023-02-26T03:53:51;96857.72;;;2.64;98.18
27202;BME280;14717;46.924;15.474;2023-02-26T03:56:39;96856.09;;;2.63;97.85
27202;BME280;14717;46.924;15.474;2023-02-26T03:59:05;96843.78;;;2.46;97.55
27202;BME280;14717;46.924;15.474;2023-02-26T04:01:42;96846.44;;;2.31;98.78
27202;BME280;14717;46.924;15.474;2023-02-26T04:04:12;96844.22;;;2.28;98.93
27202;BME280;14717;46.924;15.474;2023-02-26T04:06:40;96855.97;;;2.38;100.00
27202;BME280;14717;46.924;15.474;2023-02-26T04:09:06;96864.75;;;2.45;99.53
27202;BME280;14717;46.924;15.474;2023-02-26T04:11:32;96870.50;;;2.49;98.85
27202;BME280;14717;46.924;15.474;2023-02-26T04:13:59;96873.16;;;2.34;98.86
27202;BME280;14717;46.924;15.474;2023-02-26T04:16:25;96869.81;;;2.17;99.23
27202;BME280;14717;46.924;15.474;2023-02-26T04:18:50;96873.38;;;2.22;99.53
27202;BME280;14717;46.924;15.474;2023-02-26T04:21:18;96880.22;;;2.35;100.00
27202;BME280;14717;46.924;15.474;2023-02-26T04:23:44;96885.44;;;2.41;100.00
27202;BME280;14717;46.924;15.474;2023-02-26T04:26:10;96881.09;;;2.45;99.51
27202;BME280;14717;46.924;15.474;2023-02-26T04:28:37;96878.41;;;2.50;99.67
27202;BME280;14717;46.924;15.474;2023-02-26T04:31:04;96887.13;;;2.57;99.13
27202;BME280;14717;46.924;15.474;2023-02-26T04:33:29;96889.88;;;2.57;99.59
27202;BME280;14717;46.924;15.474;2023-02-26T04:35:55;96895.81;;;2.44;98.94
27202;BME280;14717;46.924;15.474;2023-02-26T04:38:21;96891.44;;;2.48;98.97
27202;BME280;14717;46.924;15.474;2023-02-26T04:40:48;96892.84;;;2.55;99.98
27202;BME280;14717;46.924;15.474;2023-02-26T04:43:13;96899.41;;;2.59;98.52
27202;BME280;14717;46.924;15.474;2023-02-26T04:45:38;96906.22;;;2.57;98.50
27202;BME280;14717;46.924;15.474;2023-02-26T04:48:04;96920.91;;;2.56;98.47
27202;BME280;14717;46.924;15.474;2023-02-26T04:50:29;96912.75;;;2.56;97.54
27202;BME280;14717;46.924;15.474;2023-02-26T04:52:54;96919.56;;;2.53;98.27
27202;BME280;14717;46.924;15.474;2023-02-26T04:55:20;96914.91;;;2.49;97.76
27202;BME280;14717;46.924;15.474;2023-02-26T04:57:45;96916.56;;;2.55;98.29
27202;BME280;14717;46.924;15.474;2023-02-26T05:00:11;96923.09;;;2.54;97.81
27202;BME280;14717;46.924;15.474;2023-02-26T05:02:36;96927.41;;;2.45;97.71
27202;BME280;14717;46.924;15.474;2023-02-26T05:05:02;96922.72;;;2.31;98.16
27202;BME280;14717;46.924;15.474;2023-02-26T05:07:28;96937.16;;;2.36;99.17
27202;BME280;14717;46.924;15.474;2023-02-26T05:09:53;96936.41;;;2.46;100.00
27202;BME280;14717;46.924;15.474;2023-02-26T05:12:18;96933.41;;;2.42;99.80
27202;BME280;14717;46.924;15.474;2023-02-26T05:14:44;96935.84;;;2.44;99.84
27202;BME280;14717;46.924;15.474;2023-02-26T05:17:09;96939.66;;;2.43;99.85
27202;BME280;14717;46.924;15.474;2023-02-26T05:19:34;96937.19;;;2.41;99.50
27202;BME280;14717;46.924;15.474;2023-02-26T05:22:00;96945.16;;;2.53;99.67
27202;BME280;14717;46.924;15.474;2023-02-26T05:24:25;96948.66;;;2.48;99.79
27202;BME280;14717;46.924;15.474;2023-02-26T05:26:50;96952.53;;;2.52;99.66
27202;BME280;14717;46.924;15.474;2023-02-26T05:29:16;96953.84;;;2.50;99.28
27202;BME280;14717;46.924;15.474;2023-02-26T05:31:41;96956.56;;;2.50;99.71
27202;BME280;14717;46.924;15.474;2023-02-26T05:34:07;96942.72;;;2.56;99.20
27202;BME280;14717;46.924;15.474;2023-02-26T05:36:32;96950.38;;;2.59;98.74
27202;BME280;14717;46.924;15.474;2023-02-26T05:38:57;96961.81;;;2.61;97.98
27202;BME280;14717;46.924;15.474;2023-02-26T05:41:23;96953.09;;;2.59;98.14
27202;BME280;14717;46.924;15.474;2023-02-26T05:43:49;96947.63;;;2.54;98.15
27202;BME280;14717;46.924;15.474;2023-02-26T05:46:14;96957.97;;;2.52;98.25
27202;BME280;14717;46.924;15.474;2023-02-26T05:48:39;96961.75;;;2.51;98.52
27202;BME280;14717;46.924;15.474;2023-02-26T05:51:05;96951.88;;;2.35;98.08
27202;BME280;14717;46.924;15.474;2023-02-26T05:53:30;96953.44;;;2.26;98.49
27202;BME280;14717;46.924;15.474;2023-02-26T05:55:55;96954.28;;;2.27;98.70
27202;BME280;14717;46.924;15.474;2023-02-26T05:58:21;96957.06;;;2.37;99.99
27202;BME280;14717;46.924;15.474;2023-02-26T06:00:46;96966.13;;;2.47;99.33
27202;BME280;14717;46.924;15.474;2023-02-26T06:03:12;96968.06;;;2.52;98.29
27202;BME280;14717;46.924;15.474;2023-02-26T06:05:37;96964.97;;;2.43;98.90
27202;BME280;14717;46.924;15.474;2023-02-26T06:08:03;96967.38;;;2.35;98.75
27202;BME280;14717;46.924;15.474;2023-02-26T06:10:30;96972.31;;;2.38;99.21
27202;BME280;14717;46.924;15.474;2023-02-26T06:12:56;96981.94;;;2.50;99.32
27202;BME280;14717;46.924;15.474;2023-02-26T06:15:21;96994.47;;;2.51;98.57
27202;BME280;14717;46.924;15.474;2023-02-26T06:17:46;96980.31;;;2.54;98.91
27202;BME280;14717;46.924;15.474;2023-02-26T06:20:12;96991.75;;;2.56;98.57
27202;BME280;14717;46.924;15.474;2023-02-26T06:22:38;96997.22;;;2.56;98.40
27202;BME280;14717;46.924;15.474;2023-02-26T06:25:03;96997.81;;;2.58;98.36
27202;BME280;14717;46.924;15.474;2023-02-26T06:27:29;97005.13;;;2.57;97.90
27202;BME280;14717;46.924;15.474;2023-02-26T06:29:54;96997.78;;;2.53;97.68
27202;BME280;14717;46.924;15.474;2023-02-26T06:32:20;97007.31;;;2.55;98.44
27202;BME280;14717;46.924;15.474;2023-02-26T06:34:45;97007.56;;;2.54;97.92
27202;BME280;14717;46.924;15.474;2023-02-26T06:37:11;97005.66;;;2.54;98.36
27202;BME280;14717;46.924;15.474;2023-02-26T06:39:36;97002.59;;;2.46;97.84
27202;BME280;14717;46.924;15.474;2023-02-26T06:42:01;97008.13;;;2.56;99.04
27202;BME280;14717;46.924;15.474;2023-02-26T06:44:27;97017.47;;;2.65;98.39
27202;BME280;14717;46.924;15.474;2023-02-26T06:46:52;97018.59;;;2.79;97.92
27202;BME280;14717;46.924;15.474;2023-02-26T06:49:17;97022.47;;;2.83;96.97
27202;BME280;14717;46.924;15.474;2023-02-26T06:51:43;97033.91;;;2.85;97.25
27202;BME280;14717;46.924;15.474;2023-02-26T06:54:08;97034.44;;;2.82;97.22
27202;BME280;14717;46.924;15.474;2023-02-26T06:56:33;97029.56;;;2.89;96.39
27202;BME280;14717;46.924;15.474;2023-02-26T06:58:59;97043.75;;;2.91;97.18
27202;BME280;14717;46.924;15.474;2023-02-26T07:01:25;97046.50;;;2.95;97.01
27202;BME280;14717;46.924;15.474;2023-02-26T07:03:51;97045.97;;;2.98;96.11
27202;BME280;14717;46.924;15.474;2023-02-26T07:06:17;97043.78;;;3.00;96.50
27202;BME280;14717;46.924;15.474;2023-02-26T07:08:42;97039.44;;;2.95;95.78
27202;BME280;14717;46.924;15.474;2023-02-26T07:11:08;97044.41;;;3.07;96.11
27202;BME280;14717;46.924;15.474;2023-02-26T07:13:35;97040.63;;;3.18;95.70
27202;BME280;14717;46.924;15.474;2023-02-26T07:16:01;97043.06;;;3.20;95.40
27202;BME280;14717;46.924;15.474;2023-02-26T07:18:26;97047.47;;;3.26;95.45
27202;BME280;14717;46.924;15.474;2023-02-26T07:20:52;97048.56;;;3.30;94.73
27202;BME280;14717;46.924;15.474;2023-02-26T07:23:17;97047.22;;;3.32;94.44
27202;BME280;14717;46.924;15.474;2023-02-26T07:25:42;97040.69;;;3.38;94.13
27202;BME280;14717;46.924;15.474;2023-02-26T07:28:08;97050.53;;;3.39;93.51
27202;BME280;14717;46.924;15.474;2023-02-26T07:30:33;97050.06;;;3.62;93.05
27202;BME280;14717;46.924;15.474;2023-02-26T07:32:59;97056.31;;;3.57;92.54
27202;BME280;14717;46.924;15.474;2023-02-26T07:35:24;97049.09;;;3.27;93.36
27202;BME280;14717;46.924;15.474;2023-02-26T07:37:49;97051.03;;;3.26;94.47
27202;BME280;14717;46.924;15.474;2023-02-26T07:40:16;97049.19;;;3.56;94.75
27202;BME280;14717;46.924;15.474;2023-02-26T07:42:44;97044.91;;;3.80;92.90
27202;BME280;14717;46.924;15.474;2023-02-26T07:45:09;97058.03;;;3.93;91.51
27202;BME280;14717;46.924;15.474;2023-02-26T07:47:35;97057.78;;;4.09;90.41
27202;BME280;14717;46.924;15.474;2023-02-26T07:50:01;97058.06;;;4.18;90.22
27202;BME280;14717;46.924;15.474;2023-02-26T07:52:27;97057.22;;;4.17;90.83
27202;BME280;14717;46.924;15.474;2023-02-26T07:54:53;97068.13;;;3.87;90.33
27202;BME280;14717;46.924;15.474;2023-02-26T07:57:18;97065.97;;;3.89;91.40
27202;BME280;14717;46.924;15.474;2023-02-26T07:59:44;97068.13;;;3.87;89.60
27202;BME280;14717;46.924;15.474;2023-02-26T08:02:10;97069.22;;;3.91;90.83
27202;BME280;14717;46.924;15.474;2023-02-26T08:04:36;97064.34;;;4.08;90.39
27202;BME280;14717;46.924;15.474;2023-02-26T08:07:02;97071.16;;;4.11;90.44
27202;BME280;14717;46.924;15.474;2023-02-26T08:09:27;97073.06;;;4.00;89.99
27202;BME280;14717;46.924;15.474;2023-02-26T08:11:53;97062.31;;;3.59;91.74
27202;BME280;14717;46.924;15.474;2023-02-26T08:14:18;97065.09;;;3.74;92.03
27202;BME280;14717;46.924;15.474;2023-02-26T08:16:44;97071.97;;;3.86;91.00
27202;BME280;14717;46.924;15.474;2023-02-26T08:19:09;97092.72;;;3.92;90.88
27202;BME280;14717;46.924;15.474;2023-02-26T08:21:35;97090.00;;;4.02;91.76
27202;BME280;14717;46.924;15.474;2023-02-26T08:24:00;97094.91;;;3.90;91.02
27202;BME280;14717;46.924;15.474;2023-02-26T08:26:27;97100.63;;;3.94;90.94
27202;BME280;14717;46.924;15.474;2023-02-26T08:28:52;97099.53;;;3.90;90.23
27202;BME280;14717;46.924;15.474;2023-02-26T08:31:18;97108.31;;;4.02;90.12
27202;BME280;14717;46.924;15.474;2023-02-26T08:33:44;97133.41;;;3.94;89.75
27202;BME280;14717;46.924;15.474;2023-02-26T08:36:09;97130.16;;;4.02;90.75
27202;BME280;14717;46.924;15.474;2023-02-26T08:38:34;97130.28;;;3.56;91.45
27202;BME280;14717;46.924;15.474;2023-02-26T08:41:00;97126.72;;;3.50;92.46
27202;BME280;14717;46.924;15.474;2023-02-26T08:43:26;97132.22;;;3.60;92.73
27202;BME280;14717;46.924;15.474;2023-02-26T08:45:52;97138.00;;;3.74;92.66
27202;BME280;14717;46.924;15.474;2023-02-26T08:48:18;97147.38;;;4.02;92.03
27202;BME280;14717;46.924;15.474;2023-02-26T08:50:43;97148.53;;;4.21;91.38
27202;BME280;14717;46.924;15.474;2023-02-26T08:53:09;97159.13;;;4.03;90.48
27202;BME280;14717;46.924;15.474;2023-02-26T08:55:34;97169.78;;;3.99;90.13
27202;BME280;14717;46.924;15.474;2023-02-26T08:57:59;97176.88;;;4.05;90.24
27202;BME280;14717;46.924;15.474;2023-02-26T09:00:25;97181.00;;;4.08;90.21
27202;BME280;14717;46.924;15.474;2023-02-26T09:02:50;97172.47;;;3.84;89.06
27202;BME280;14717;46.924;15.474;2023-02-26T09:05:15;97174.19;;;4.15;90.82
27202;BME280;14717;46.924;15.474;2023-02-26T09:07:41;97181.88;;;4.38;88.34
27202;BME280;14717;46.924;15.474;2023-02-26T09:10:07;97202.03;;;4.12;86.44
27202;BME280;14717;46.924;15.474;2023-02-26T09:12:33;97196.59;;;4.22;88.14
27202;BME280;14717;46.924;15.474;2023-02-26T09:15:02;97188.41;;;4.22;85.72
27202;BME280;14717;46.924;15.474;2023-02-26T09:17:28;97174.78;;;4.52;86.34
27202;BME280;14717;46.924;15.474;2023-02-26T09:19:54;97184.03;;;4.16;83.71
27202;BME280;14717;46.924;15.474;2023-02-26T09:22:19;97192.84;;;4.43;84.49
27202;BME280;14717;46.924;15.474;2023-02-26T09:24:45;97183.25;;;4.40;81.71
27202;BME280;14717;46.924;15.474;2023-02-26T09:27:10;97208.09;;;4.24;78.63
27202;BME280;14717;46.924;15.474;2023-02-26T09:29:35;97197.47;;;4.32;80.13
27202;BME280;14717;46.924;15.474;2023-02-26T09:32:01;97198.84;;;4.40;79.44
27202;BME280;14717;46.924;15.474;2023-02-26T09:34:29;97193.38;;;4.45;78.40
27202;BME280;14717;46.924;15.474;2023-02-26T09:36:54;97191.78;;;4.73;77.72
27202;BME280;14717;46.924;15.474;2023-02-26T09:39:19;97194.81;;;4.97;75.86
27202;BME280;14717;46.924;15.474;2023-02-26T09:41:51;97204.34;;;4.60;67.75
27202;BME280;14717;46.924;15.474;2023-02-26T09:44:26;97217.97;;;4.45;72.19
27202;BME280;14717;46.924;15.474;2023-02-26T09:46:58;97204.31;;;4.45;69.13
27202;BME280;14717;46.924;15.474;2023-02-26T09:54:46;97204.72;;;4.02;68.89
27202;BME280;14717;46.924;15.474;2023-02-26T09:57:26;97211.84;;;3.98;69.63
27202;BME280;14717;46.924;15.474;2023-02-26T09:59:53;97214.84;;;4.02;69.51
27202;BME280;14717;46.924;15.474;2023-02-26T10:02:50;97216.25;;;4.09;69.68
27202;BME280;14717;46.924;15.474;2023-02-26T10:05:30;97230.53;;;4.36;72.16
27202;BME280;14717;46.924;15.474;2023-02-26T10:08:04;97220.97;;;4.33;64.92
27202;BME280;14717;46.924;15.474;2023-02-26T10:13:09;97233.03;;;4.42;65.93
27202;BME280;14717;46.924;15.474;2023-02-26T10:15:41;97225.09;;;4.36;69.00
27202;BME280;14717;46.924;15.474;2023-02-26T10:18:18;97228.59;;;4.22;65.49
27202;BME280;14717;46.924;15.474;2023-02-26T10:21:01;97242.50;;;4.20;65.08
27202;BME280;14717;46.924;15.474;2023-02-26T10:23:37;97236.81;;;4.36;66.26
27202;BME280;14717;46.924;15.474;2023-02-26T10:26:18;97237.41;;;4.48;60.29
27202;BME280;14717;46.924;15.474;2023-02-26T10:28:53;97241.00;;;4.68;65.42
27202;BME280;14717;46.924;15.474;2023-02-26T10:31:24;97235.53;;;4.68;62.73
27202;BME280;14717;46.924;15.474;2023-02-26T10:39:41;97233.91;;;4.87;62.60
27202;BME280;14717;46.924;15.474;2023-02-26T10:42:14;97223.78;;;4.98;61.82
27202;BME280;14717;46.924;15.474;2023-02-26T10:48:00;97237.47;;;5.03;59.04
27202;BME280;14717;46.924;15.474;2023-02-26T10:50:30;97235.56;;;5.08;59.44
27202;BME280;14717;46.924;15.474;2023-02-26T10:52:56;97254.72;;;5.28;60.00
27202;BME280;14717;46.924;15.474;2023-02-26T10:57:54;97247.03;;;4.70;57.70
27202;BME280;14717;46.924;15.474;2023-02-26T11:00:20;97253.31;;;4.76;58.45
27202;BME280;14717;46.924;15.474;2023-02-26T11:02:49;97255.25;;;4.90;60.12
27202;BME280;14717;46.924;15.474;2023-02-26T11:05:24;97247.03;;;4.75;59.25
27202;BME280;14717;46.924;15.474;2023-02-26T11:07:54;97249.19;;;4.54;59.85
27202;BME280;14717;46.924;15.474;2023-02-26T11:10:24;97243.72;;;4.54;60.71
27202;BME280;14717;46.924;15.474;2023-02-26T11:12:51;97248.63;;;4.62;61.67
27202;BME280;14717;46.924;15.474;2023-02-26T11:15:20;97247.53;;;4.58;63.98
27202;BME280;14717;46.924;15.474;2023-02-26T11:17:48;97249.75;;;4.61;62.87
27202;BME280;14717;46.924;15.474;2023-02-26T11:20:30;97253.03;;;4.63;62.63
27202;BME280;14717;46.924;15.474;2023-02-26T11:22:58;97256.31;;;4.74;64.35
27202;BME280;14717;46.924;15.474;2023-02-26T11:25:29;97257.44;;;4.68;63.74
27202;BME280;14717;46.924;15.474;2023-02-26T11:28:03;97249.19;;;4.59;60.22
27202;BME280;14717;46.924;15.474;2023-02-26T11:30:35;97257.94;;;4.51;61.31
27202;BME280;14717;46.924;15.474;2023-02-26T11:33:13;97257.38;;;4.49;61.07
27202;BME280;14717;46.924;15.474;2023-02-26T11:35:40;97260.13;;;4.54;61.76
27202;BME280;14717;46.924;15.474;2023-02-26T11:38:19;97256.59;;;4.73;63.69
27202;BME280;14717;46.924;15.474;2023-02-26T11:40:53;97252.50;;;4.80;64.79
27202;BME280;14717;46.924;15.474;2023-02-26T11:43:21;97247.59;;;4.82;66.34
27202;BME280;14717;46.924;15.474;2023-02-26T11:45:52;97255.81;;;4.97;67.97
27202;BME280;14717;46.924;15.474;2023-02-26T11:48:22;97251.72;;;5.09;70.28
27202;BME280;14717;46.924;15.474;2023-02-26T11:50:52;97246.53;;;5.18;68.15
27202;BME280;14717;46.924;15.474;2023-02-26T11:53:31;97253.63;;;5.24;67.28
27202;BME280;14717;46.924;15.474;2023-02-26T11:55:59;97259.09;;;5.14;68.17
27202;BME280;14717;46.924;15.474;2023-02-26T11:58:29;97253.09;;;5.12;67.75
27202;BME280;14717;46.924;15.474;2023-02-26T12:01:00;97245.69;;;5.07;68.14
27202;BME280;14717;46.924;15.474;2023-02-26T12:03:30;97253.09;;;5.12;69.78
27202;BME280;14717;46.924;15.474;2023-02-26T12:05:57;97258.56;;;5.07;69.86
27202;BME280;14717;46.924;15.474;2023-02-26T12:08:34;97255.81;;;5.17;70.07
27202;BME280;14717;46.924;15.474;2023-02-26T12:11:15;97262.94;;;5.13;70.92
27202;BME280;14717;46.924;15.474;2023-02-26T12:16:29;97267.03;;;5.15;68.98
27202;BME280;14717;46.924;15.474;2023-02-26T12:19:18;97266.75;;;5.27;69.09
27202;BME280;14717;46.924;15.474;2023-02-26T12:24:49;97283.44;;;5.10;67.87
27202;BME280;14717;46.924;15.474;2023-02-26T12:30:12;97283.72;;;5.04;65.96
27202;BME280;14717;46.924;15.474;2023-02-26T12:33:15;97291.13;;;5.08;67.38
27202;BME280;14717;46.924;15.474;2023-02-26T12:38:24;97300.94;;;4.75;68.22
27202;BME280;14717;46.924;15.474;2023-02-26T12:43:41;97315.59;;;4.44;68.27
27202;BME280;14717;46.924;15.474;2023-02-26T12:46:53;97317.59;;;4.64;69.87
27202;BME280;14717;46.924;15.474;2023-02-26T12:52:39;97315.41;;;4.75;70.21
27202;BME280;14717;46.924;15.474;2023-02-26T12:55:22;97307.75;;;4.72;69.72
27202;BME280;14717;46.924;15.474;2023-02-26T13:06:57;97331.09;;;4.24;69.49
27202;BME280;14717;46.924;15.474;2023-02-26T13:09:37;97325.88;;;4.22;71.09
27202;BME280;14717;46.924;15.474;2023-02-26T13:12:34;97343.09;;;4.23;71.60
27202;BME280;14717;46.924;15.474;2023-02-26T13:20:36;97342.00;;;4.19;68.13
27202;BME280;14717;46.924;15.474;2023-02-26T13:23:16;97350.22;;;4.24;69.11
27202;BME280;14717;46.924;15.474;2023-02-26T13:25:50;97345.84;;;4.28;69.39
27202;BME280;14717;46.924;15.474;2023-02-26T13:28:42;97350.50;;;4.27;67.69
27202;BME280;14717;46.924;15.474;2023-02-26T13:31:33;97346.97;;;4.37;69.33
27202;BME280;14717;46.924;15.474;2023-02-26T13:34:12;97351.34;;;4.33;66.90
27202;BME280;14717;46.924;15.474;2023-02-26T13:36:40;97352.16;;;4.33;67.85
27202;BME280;14717;46.924;15.474;2023-02-26T13:39:09;97358.75;;;4.32;67.30
27202;BME280;14717;46.924;15.474;2023-02-26T13:44:53;97354.41;;;4.41;67.61
27202;BME280;14717;46.924;15.474;2023-02-26T13:52:55;97350.31;;;4.44;65.20
27202;BME280;14717;46.924;15.474;2023-02-26T13:55:56;97353.03;;;4.39;64.33
27202;BME280;14717;46.924;15.474;2023-02-26T13:58:37;97358.47;;;4.34;64.20
27202;BME280;14717;46.924;15.474;2023-02-26T14:04:25;97362.88;;;4.45;67.49
27202;BME280;14717;46.924;15.474;2023-02-26T14:19:36;97386.09;;;4.37;63.99
27202;BME280;14717;46.924;15.474;2023-02-26T14:22:13;97387.44;;;4.35;65.18
27202;BME280;14717;46.924;15.474;2023-02-26T14:27:39;97391.31;;;4.39;64.55
27202;BME280;14717;46.924;15.474;2023-02-26T14:32:46;97374.88;;;4.34;62.31
27202;BME280;14717;46.924;15.474;2023-02-26T14:35:24;97371.59;;;4.37;62.99
27202;BME280;14717;46.924;15.474;2023-02-26T14:38:07;97378.16;;;4.36;60.95
27202;BME280;14717;46.924;15.474;2023-02-26T14:40:47;97381.97;;;4.35;60.27
27202;BME280;14717;46.924;15.474;2023-02-26T14:43:16;97380.06;;;4.40;59.91
27202;BME280;14717;46.924;15.474;2023-02-26T14:45:43;97388.25;;;4.35;56.38
27202;BME280;14717;46.924;15.474;2023-02-26T14:48:15;97389.63;;;4.33;55.84
27202;BME280;14717;46.924;15.474;2023-02-26T14:53:54;97389.34;;;4.29;54.51
27202;BME280;14717;46.924;15.474;2023-02-26T15:15:51;97434.59;;;4.16;52.72
27202;BME280;14717;46.924;15.474;2023-02-26T15:23:58;97440.03;;;4.11;53.41
27202;BME280;14717;46.924;15.474;2023-02-26T15:26:26;97454.78;;;4.10;53.61
27202;BME280;14717;46.924;15.474;2023-02-26T15:28:53;97448.19;;;4.06;55.00
27202;BME280;14717;46.924;15.474;2023-02-26T15:31:28;97452.84;;;4.05;57.02
27202;BME280;14717;46.924;15.474;2023-02-26T15:33:55;97456.34;;;4.01;57.88